Time,TemperatureF,DewpointF,PressureIn,WindDirection,WindDirectionDegrees,WindSpeedMPH,WindSpeedGustMPH,Humidity,HourlyPrecipIn,Conditions,Clouds,dailyrainin,SoftwareType,DateUTC
2013-04-03 00:00:00,27.0,19.4,30.32,WSW,242,4.0,4.0,73,0.00,,,0.00,meteohub,2013-04-03 04:00:00,
2013-04-03 00:03:00,27.0,19.4,30.32,WSW,243,3.0,5.0,73,0.00,,,0.00,meteohub,2013-04-03 04:03:00,
2013-04-03 00:09:00,27.0,19.4,30.32,WSW,245,2.0,5.0,73,0.00,,,0.00,meteohub,2013-04-03 04:09:00,
2013-04-03 00:14:00,27.1,19.4,30.31,WSW,248,2.0,4.0,72,0.00,,,0.00,meteohub,2013-04-03 04:14:00,
2013-04-03 00:19:00,27.1,19.4,30.32,WSW,253,2.0,4.0,72,0.00,,,0.00,meteohub,2013-04-03 04:19:00,
2013-04-03 00:24:00,27.1,19.4,30.31,WSW,255,1.0,3.0,72,0.00,,,0.00,meteohub,2013-04-03 04:24:00,
2013-04-03 00:29:00,27.1,19.4,30.31,WSW,256,1.0,3.0,72,0.00,,,0.00,meteohub,2013-04-03 04:29:00,
2013-04-03 00:34:00,26.8,19.2,30.31,WSW,256,0.0,3.0,73,0.00,,,0.00,meteohub,2013-04-03 04:34:00,
2013-04-03 00:39:00,26.2,19.0,30.31,WSW,255,0.0,3.0,74,0.00,,,0.00,meteohub,2013-04-03 04:39:00,
2013-04-03 00:44:00,26.2,19.4,30.31,WSW,250,1.0,1.0,75,0.00,,,0.00,meteohub,2013-04-03 04:44:00,
2013-04-03 00:49:00,26.4,19.2,30.31,WSW,250,1.0,2.0,74,0.00,,,0.00,meteohub,2013-04-03 04:49:00,
2013-04-03 00:54:00,26.4,18.9,30.31,WSW,250,2.0,2.0,73,0.00,,,0.00,meteohub,2013-04-03 04:54:00,
2013-04-03 00:59:00,26.6,19.0,30.31,WSW,245,2.0,3.0,73,0.00,,,0.00,meteohub,2013-04-03 04:59:00,
2013-04-03 01:04:00,26.6,19.0,30.31,WSW,256,1.0,3.0,73,0.00,,,0.00,meteohub,2013-04-03 05:04:00,
2013-04-03 01:09:00,26.4,19.2,30.31,WSW,256,0.0,2.0,74,0.00,,,0.00,meteohub,2013-04-03 05:09:00,
2013-04-03 01:14:00,26.4,19.2,30.31,WSW,248,1.0,2.0,74,0.00,,,0.00,meteohub,2013-04-03 05:14:00,
2013-04-03 01:19:00,26.2,19.0,30.32,WSW,239,0.0,2.0,74,0.00,,,0.00,meteohub,2013-04-03 05:19:00,
2013-04-03 01:24:00,26.2,19.4,30.31,SW,232,4.0,4.0,75,0.00,,,0.00,meteohub,2013-04-03 05:24:00,
2013-04-03 01:29:00,26.2,19.4,30.31,WSW,249,1.0,2.0,75,0.00,,,0.00,meteohub,2013-04-03 05:29:00,
2013-04-03 01:34:00,26.2,19.4,30.32,West,264,2.0,4.0,75,0.00,,,0.00,meteohub,2013-04-03 05:34:00,
2013-04-03 01:39:00,26.2,19.4,30.32,WSW,253,2.0,4.0,75,0.00,,,0.00,meteohub,2013-04-03 05:39:00,
2013-04-03 01:45:00,26.2,19.4,30.32,West,260,1.0,4.0,75,0.00,,,0.00,meteohub,2013-04-03 05:45:00,
2013-04-03 01:50:00,26.2,19.4,30.32,WSW,255,2.0,3.0,75,0.00,,,0.00,meteohub,2013-04-03 05:50:00,
2013-04-03 01:55:00,26.1,19.2,30.32,WSW,258,1.0,3.0,75,0.00,,,0.00,meteohub,2013-04-03 05:55:00,
2013-04-03 02:00:00,26.1,19.2,30.32,West,264,1.0,2.0,75,0.00,,,0.00,meteohub,2013-04-03 06:00:00,
2013-04-03 02:05:00,26.1,19.6,30.32,West,262,1.0,2.0,76,0.00,,,0.00,meteohub,2013-04-03 06:05:00,
2013-04-03 02:10:00,26.1,19.6,30.32,WSW,256,1.0,2.0,76,0.00,,,0.00,meteohub,2013-04-03 06:10:00,
2013-04-03 02:15:00,26.1,19.6,30.33,West,260,2.0,3.0,76,0.00,,,0.00,meteohub,2013-04-03 06:15:00,
2013-04-03 02:20:00,25.9,19.8,30.33,WSW,245,3.0,3.0,77,0.00,,,0.00,meteohub,2013-04-03 06:20:00,
2013-04-03 02:25:00,25.9,19.8,30.32,West,259,2.0,4.0,77,0.00,,,0.00,meteohub,2013-04-03 06:25:00,
2013-04-03 02:30:00,26.1,19.8,30.33,WSW,256,2.0,4.0,77,0.00,,,0.00,meteohub,2013-04-03 06:30:00,
2013-04-03 02:36:00,25.9,19.9,30.33,West,262,3.0,5.0,78,0.00,,,0.00,meteohub,2013-04-03 06:36:00,
2013-04-03 02:41:00,25.9,19.9,30.33,West,259,3.0,4.0,78,0.00,,,0.00,meteohub,2013-04-03 06:41:00,
2013-04-03 02:46:00,25.9,20.3,30.33,WSW,250,4.0,5.0,79,0.00,,,0.00,meteohub,2013-04-03 06:46:00,
2013-04-03 02:52:00,25.9,20.3,30.33,WSW,239,3.0,5.0,79,0.00,,,0.00,meteohub,2013-04-03 06:52:00,
2013-04-03 02:57:00,25.9,20.5,30.32,WSW,248,2.0,5.0,80,0.00,,,0.00,meteohub,2013-04-03 06:57:00,
2013-04-03 03:02:00,25.9,20.5,30.32,WSW,256,3.0,4.0,80,0.00,,,0.00,meteohub,2013-04-03 07:02:00,
2013-04-03 03:07:00,25.9,20.5,30.32,WSW,253,3.0,4.0,80,0.00,,,0.00,meteohub,2013-04-03 07:07:00,
2013-04-03 03:12:00,25.9,20.5,30.32,WSW,250,2.0,4.0,80,0.00,,,0.00,meteohub,2013-04-03 07:12:00,
2013-04-03 03:17:00,25.9,20.8,30.32,WSW,239,3.0,4.0,81,0.00,,,0.00,meteohub,2013-04-03 07:17:00,
2013-04-03 03:22:00,25.7,20.7,30.32,WSW,256,3.0,4.0,81,0.00,,,0.00,meteohub,2013-04-03 07:22:00,
2013-04-03 03:27:00,25.9,20.8,30.32,West,260,1.0,4.0,81,0.00,,,0.00,meteohub,2013-04-03 07:27:00,
2013-04-03 03:32:00,25.7,20.7,30.32,WSW,252,1.0,4.0,81,0.00,,,0.00,meteohub,2013-04-03 07:32:00,
2013-04-03 03:37:00,25.7,21.0,30.32,West,272,2.0,4.0,82,0.00,,,0.00,meteohub,2013-04-03 07:37:00,
2013-04-03 03:42:00,25.7,21.0,30.32,West,271,2.0,3.0,82,0.00,,,0.00,meteohub,2013-04-03 07:42:00,
2013-04-03 03:48:00,25.7,21.0,30.32,West,266,2.0,3.0,82,0.00,,,0.00,meteohub,2013-04-03 07:48:00,
2013-04-03 03:53:00,25.7,21.0,30.32,WSW,245,4.0,4.0,82,0.00,,,0.00,meteohub,2013-04-03 07:53:00,
2013-04-03 03:58:00,25.5,20.8,30.32,West,263,2.0,4.0,82,0.00,,,0.00,meteohub,2013-04-03 07:58:00,
2013-04-03 04:03:00,25.7,21.2,30.32,WSW,239,2.0,5.0,83,0.00,,,0.00,meteohub,2013-04-03 08:03:00,
2013-04-03 04:08:00,25.7,21.2,30.32,WSW,256,2.0,5.0,83,0.00,,,0.00,meteohub,2013-04-03 08:08:00,
2013-04-03 04:13:00,25.7,21.2,30.32,WSW,256,2.0,5.0,83,0.00,,,0.00,meteohub,2013-04-03 08:13:00,
2013-04-03 04:18:00,25.7,21.2,30.33,WSW,245,2.0,4.0,83,0.00,,,0.00,meteohub,2013-04-03 08:18:00,
2013-04-03 04:23:00,25.9,21.7,30.33,WSW,250,1.0,3.0,84,0.00,,,0.00,meteohub,2013-04-03 08:23:00,
2013-04-03 04:28:00,26.1,21.6,30.33,WSW,248,0.0,3.0,83,0.00,,,0.00,meteohub,2013-04-03 08:28:00,
2013-04-03 04:33:00,25.5,20.8,30.33,SW,231,1.0,3.0,82,0.00,,,0.00,meteohub,2013-04-03 08:33:00,
2013-04-03 04:38:00,25.3,21.2,30.34,WSW,248,4.0,4.0,84,0.00,,,0.00,meteohub,2013-04-03 08:38:00,
2013-04-03 04:43:00,25.5,21.4,30.34,WSW,245,2.0,5.0,84,0.00,,,0.00,meteohub,2013-04-03 08:43:00,
2013-04-03 04:48:00,25.3,21.2,30.35,WSW,239,2.0,5.0,84,0.00,,,0.00,meteohub,2013-04-03 08:48:00,
2013-04-03 04:53:00,25.2,20.7,30.35,WSW,240,1.0,5.0,83,0.00,,,0.00,meteohub,2013-04-03 08:53:00,
2013-04-03 04:58:00,25.0,20.8,30.35,WSW,250,0.0,3.0,84,0.00,,,0.00,meteohub,2013-04-03 08:58:00,
2013-04-03 05:03:00,24.4,20.3,30.35,WSW,250,0.0,2.0,84,0.00,,,0.00,meteohub,2013-04-03 09:03:00,
2013-04-03 05:08:00,24.1,20.3,30.35,WSW,250,0.0,2.0,85,0.00,,,0.00,meteohub,2013-04-03 09:08:00,
2013-04-03 05:13:00,23.7,20.1,30.35,WSW,250,0.0,1.0,86,0.00,,,0.00,meteohub,2013-04-03 09:13:00,
2013-04-03 05:19:00,23.7,20.1,30.36,WSW,250,1.0,1.0,86,0.00,,,0.00,meteohub,2013-04-03 09:19:00,
2013-04-03 05:24:00,23.5,20.3,30.36,WSW,250,0.0,1.0,87,0.00,,,0.00,meteohub,2013-04-03 09:24:00,
2013-04-03 05:29:00,23.7,20.5,30.36,WNW,290,0.0,1.0,87,0.00,,,0.00,meteohub,2013-04-03 09:29:00,
2013-04-03 05:34:00,24.1,20.8,30.36,WNW,292,0.0,1.0,87,0.00,,,0.00,meteohub,2013-04-03 09:34:00,
2013-04-03 05:39:00,24.4,21.2,30.37,WNW,295,0.0,1.0,87,0.00,,,0.00,meteohub,2013-04-03 09:39:00,
2013-04-03 05:44:00,24.6,21.0,30.37,NW,309,1.0,1.0,86,0.00,,,0.00,meteohub,2013-04-03 09:44:00,
2013-04-03 05:49:00,25.0,21.4,30.37,WNW,289,2.0,2.0,86,0.00,,,0.00,meteohub,2013-04-03 09:49:00,
2013-04-03 05:54:00,25.2,21.4,30.37,NNW,340,1.0,3.0,85,0.00,,,0.00,meteohub,2013-04-03 09:54:00,
2013-04-03 05:59:00,25.2,21.0,30.38,North,359,2.0,3.0,84,0.00,,,0.00,meteohub,2013-04-03 09:59:00,
2013-04-03 06:04:00,25.2,21.0,30.38,North,6,2.0,5.0,84,0.00,,,0.00,meteohub,2013-04-03 10:04:00,
2013-04-03 06:09:00,25.0,20.8,30.38,North,6,1.0,5.0,84,0.00,,,0.00,meteohub,2013-04-03 10:09:00,
2013-04-03 06:14:00,25.0,20.5,30.38,NNE,29,1.0,5.0,83,0.00,,,0.00,meteohub,2013-04-03 10:14:00,
2013-04-03 06:19:00,24.8,20.3,30.38,NE,53,1.0,4.0,83,0.00,,,0.00,meteohub,2013-04-03 10:19:00,
2013-04-03 06:24:00,24.8,20.3,30.38,NE,54,1.0,4.0,83,0.00,,,0.00,meteohub,2013-04-03 10:24:00,
2013-04-03 06:30:00,24.6,20.1,30.39,ENE,65,1.0,4.0,83,0.00,,,0.00,meteohub,2013-04-03 10:30:00,
2013-04-03 06:35:00,24.4,19.9,30.39,ENE,65,0.0,4.0,83,0.00,,,0.00,meteohub,2013-04-03 10:35:00,
2013-04-03 06:40:00,24.4,19.9,30.39,ENE,65,0.0,3.0,83,0.00,,,0.00,meteohub,2013-04-03 10:40:00,
2013-04-03 06:45:00,24.3,19.8,30.39,ENE,62,1.0,3.0,83,0.00,,,0.00,meteohub,2013-04-03 10:45:00,
2013-04-03 06:50:00,24.1,19.8,30.40,NE,43,0.0,2.0,83,0.00,,,0.00,meteohub,2013-04-03 10:50:00,
2013-04-03 06:55:00,23.9,19.6,30.40,NE,43,1.0,2.0,83,0.00,,,0.00,meteohub,2013-04-03 10:55:00,
2013-04-03 07:00:00,23.7,19.4,30.40,NE,41,0.0,2.0,83,0.00,,,0.00,meteohub,2013-04-03 11:00:00,
2013-04-03 07:16:00,23.7,19.4,30.41,ENE,73,1.0,1.0,83,0.00,,,0.00,meteohub,2013-04-03 11:16:00,
2013-04-03 07:21:00,23.7,19.0,30.41,East,94,1.0,1.0,82,0.00,,,0.00,meteohub,2013-04-03 11:21:00,
2013-04-03 07:26:00,23.9,19.2,30.41,East,94,0.0,1.0,82,0.00,,,0.00,meteohub,2013-04-03 11:26:00,
2013-04-03 07:31:00,24.1,19.0,30.42,East,98,0.0,1.0,81,0.00,,,0.00,meteohub,2013-04-03 11:31:00,
2013-04-03 07:36:00,23.9,18.9,30.42,WSW,256,0.0,1.0,81,0.00,,,0.00,meteohub,2013-04-03 11:36:00,
2013-04-03 07:41:00,24.1,19.0,30.43,WSW,256,0.0,1.0,81,0.00,,,0.00,meteohub,2013-04-03 11:41:00,
2013-04-03 07:47:00,24.4,19.2,30.43,WSW,256,0.0,1.0,80,0.00,,,0.00,meteohub,2013-04-03 11:47:00,
2013-04-03 07:52:00,25.0,19.8,30.43,WSW,256,0.0,0.0,80,0.00,,,0.00,meteohub,2013-04-03 11:52:00,
2013-04-03 07:57:00,25.3,19.8,30.43,WSW,256,0.0,0.0,79,0.00,,,0.00,meteohub,2013-04-03 11:57:00,
2013-04-03 08:02:00,26.2,20.7,30.43,WSW,256,0.0,0.0,79,0.00,,,0.00,meteohub,2013-04-03 12:02:00,
2013-04-03 08:07:00,27.0,21.0,30.43,WSW,256,0.0,0.0,78,0.00,,,0.00,meteohub,2013-04-03 12:07:00,
2013-04-03 08:12:00,27.3,21.4,30.44,WSW,256,0.0,0.0,78,0.00,,,0.00,meteohub,2013-04-03 12:12:00,
2013-04-03 08:17:00,28.0,22.5,30.44,WSW,256,0.0,0.0,79,0.00,,,0.00,meteohub,2013-04-03 12:17:00,
2013-04-03 08:22:00,28.2,21.4,30.44,WSW,256,0.0,1.0,75,0.00,,,0.00,meteohub,2013-04-03 12:22:00,
2013-04-03 08:27:00,27.9,20.7,30.44,WSW,250,0.0,1.0,74,0.00,,,0.00,meteohub,2013-04-03 12:27:00,
2013-04-03 08:32:00,27.5,20.7,30.44,WSW,245,0.0,1.0,75,0.00,,,0.00,meteohub,2013-04-03 12:32:00,
2013-04-03 08:37:00,27.7,20.8,30.45,WSW,242,0.0,1.0,75,0.00,,,0.00,meteohub,2013-04-03 12:37:00,
2013-04-03 08:43:00,28.0,21.2,30.45,WSW,242,0.0,1.0,75,0.00,,,0.00,meteohub,2013-04-03 12:43:00,
2013-04-03 08:48:00,28.6,21.7,30.45,WSW,241,0.0,1.0,75,0.00,,,0.00,meteohub,2013-04-03 12:48:00,
2013-04-03 08:53:00,28.8,20.8,30.45,NW,318,0.0,1.0,72,0.00,,,0.00,meteohub,2013-04-03 12:53:00,
2013-04-03 08:58:00,28.8,20.5,30.45,NW,321,0.0,1.0,71,0.00,,,0.00,meteohub,2013-04-03 12:58:00,
2013-04-03 09:03:00,29.1,20.5,30.45,NW,323,0.0,2.0,70,0.00,,,0.00,meteohub,2013-04-03 13:03:00,
2013-04-03 09:08:00,29.8,21.2,30.45,NNW,348,1.0,2.0,70,0.00,,,0.00,meteohub,2013-04-03 13:08:00,
2013-04-03 09:13:00,29.8,20.3,30.45,WNW,295,1.0,2.0,67,0.00,,,0.00,meteohub,2013-04-03 13:13:00,
2013-04-03 09:18:00,30.0,19.4,30.45,North,5,1.0,3.0,64,0.00,,,0.00,meteohub,2013-04-03 13:18:00,
2013-04-03 09:23:00,30.0,19.4,30.46,NW,309,3.0,4.0,64,0.00,,,0.00,meteohub,2013-04-03 13:23:00,
2013-04-03 09:28:00,30.0,19.0,30.46,NW,316,2.0,6.0,63,0.00,,,0.00,meteohub,2013-04-03 13:28:00,
2013-04-03 09:33:00,30.4,19.6,30.46,NNE,15,3.0,6.0,64,0.00,,,0.00,meteohub,2013-04-03 13:33:00,
2013-04-03 09:38:00,30.7,19.2,30.46,WNW,290,2.0,6.0,62,0.00,,,0.00,meteohub,2013-04-03 13:38:00,
2013-04-03 09:43:00,31.1,18.9,30.47,NNE,20,2.0,5.0,60,0.00,,,0.00,meteohub,2013-04-03 13:43:00,
2013-04-03 09:48:00,31.5,19.9,30.47,NW,326,4.0,4.0,62,0.00,,,0.00,meteohub,2013-04-03 13:48:00,
2013-04-03 09:53:00,31.8,19.6,30.47,NNW,335,4.0,6.0,60,0.00,,,0.00,meteohub,2013-04-03 13:53:00,
2013-04-03 09:58:00,32.2,18.7,30.47,NW,304,8.0,8.0,57,0.00,,,0.00,meteohub,2013-04-03 13:58:00,
2013-04-03 10:03:00,32.4,18.0,30.47,NW,309,5.0,10.0,55,0.00,,,0.00,meteohub,2013-04-03 14:03:00,
2013-04-03 10:09:00,32.2,17.1,30.48,NW,313,7.0,10.0,53,0.00,,,0.00,meteohub,2013-04-03 14:09:00,
2013-04-03 10:14:00,32.0,16.9,30.48,NNE,18,9.0,14.0,53,0.00,,,0.00,meteohub,2013-04-03 14:14:00,
2013-04-03 10:19:00,32.2,17.4,30.48,NNW,340,9.0,14.0,54,0.00,,,0.00,meteohub,2013-04-03 14:19:00,
2013-04-03 10:24:00,32.4,17.1,30.48,NNW,340,7.0,12.0,53,0.00,,,0.00,meteohub,2013-04-03 14:24:00,
2013-04-03 10:29:00,32.5,17.2,30.48,NW,308,4.0,12.0,53,0.00,,,0.00,meteohub,2013-04-03 14:29:00,
2013-04-03 10:34:00,32.7,16.5,30.48,NW,319,8.0,12.0,51,0.00,,,0.00,meteohub,2013-04-03 14:34:00,
2013-04-03 10:39:00,32.7,17.1,30.48,NNE,12,5.0,11.0,52,0.00,,,0.00,meteohub,2013-04-03 14:39:00,
2013-04-03 10:44:00,33.3,17.6,30.48,NNW,338,7.0,13.0,52,0.00,,,0.00,meteohub,2013-04-03 14:44:00,
2013-04-03 10:49:00,33.3,16.7,30.48,WNW,290,4.0,13.0,50,0.00,,,0.00,meteohub,2013-04-03 14:49:00,
2013-04-03 10:54:00,33.4,17.2,30.48,North,357,11.0,14.0,51,0.00,,,0.00,meteohub,2013-04-03 14:54:00,
2013-04-03 10:59:00,33.4,17.2,30.48,NNW,342,10.0,14.0,51,0.00,,,0.00,meteohub,2013-04-03 14:59:00,
2013-04-03 11:04:00,33.6,16.9,30.48,NNW,340,5.0,16.0,50,0.00,,,0.00,meteohub,2013-04-03 15:04:00,
2013-04-03 11:09:00,33.4,15.4,30.49,North,349,6.0,16.0,47,0.00,,,0.00,meteohub,2013-04-03 15:09:00,
2013-04-03 11:14:00,33.6,16.0,30.49,NNW,327,8.0,16.0,48,0.00,,,0.00,meteohub,2013-04-03 15:14:00,
2013-04-03 11:19:00,33.6,16.9,30.49,NW,309,5.0,14.0,50,0.00,,,0.00,meteohub,2013-04-03 15:19:00,
2013-04-03 11:24:00,33.6,16.0,30.48,WNW,287,5.0,14.0,48,0.00,,,0.00,meteohub,2013-04-03 15:24:00,
2013-04-03 11:29:00,34.0,16.3,30.48,WNW,286,6.0,13.0,48,0.00,,,0.00,meteohub,2013-04-03 15:29:00,
2013-04-03 11:34:00,34.2,16.0,30.49,NNW,344,8.0,13.0,47,0.00,,,0.00,meteohub,2013-04-03 15:34:00,
2013-04-03 11:39:00,34.5,16.9,30.49,NW,308,8.0,14.0,48,0.00,,,0.00,meteohub,2013-04-03 15:39:00,
2013-04-03 11:44:00,34.9,16.7,30.49,WNW,295,7.0,14.0,47,0.00,,,0.00,meteohub,2013-04-03 15:44:00,
2013-04-03 11:50:00,35.1,16.3,30.49,NW,326,4.0,14.0,46,0.00,,,0.00,meteohub,2013-04-03 15:50:00,
2013-04-03 11:55:00,35.1,15.3,30.49,NW,322,4.0,14.0,44,0.00,,,0.00,meteohub,2013-04-03 15:55:00,
2013-04-03 12:00:00,35.1,15.3,30.49,WNW,293,13.0,14.0,44,0.00,,,0.00,meteohub,2013-04-03 16:00:00,
2013-04-03 12:05:00,35.1,15.3,30.49,NNW,347,6.0,12.0,44,0.00,,,0.00,meteohub,2013-04-03 16:05:00,
2013-04-03 12:11:00,35.1,15.3,30.49,NNW,331,9.0,19.0,44,0.00,,,0.00,meteohub,2013-04-03 16:11:00,
2013-04-03 12:16:00,35.2,16.0,30.50,NW,324,8.0,19.0,45,0.00,,,0.00,meteohub,2013-04-03 16:16:00,
2013-04-03 12:21:00,36.1,16.9,30.50,North,4,7.0,14.0,45,0.00,,,0.00,meteohub,2013-04-03 16:21:00,
2013-04-03 12:26:00,36.3,17.1,30.50,North,353,6.0,14.0,45,0.00,,,0.00,meteohub,2013-04-03 16:26:00,
2013-04-03 12:32:00,36.3,16.0,30.49,NNW,328,8.0,12.0,43,0.00,,,0.00,meteohub,2013-04-03 16:32:00,
2013-04-03 12:37:00,36.7,14.5,30.49,NNW,340,5.0,14.0,40,0.00,,,0.00,meteohub,2013-04-03 16:37:00,
2013-04-03 12:42:00,36.3,13.6,30.48,NW,311,2.0,15.0,39,0.00,,,0.00,meteohub,2013-04-03 16:42:00,
2013-04-03 12:47:00,36.7,16.3,30.48,NNW,331,6.0,15.0,43,0.00,,,0.00,meteohub,2013-04-03 16:47:00,
2013-04-03 12:52:00,36.7,15.3,30.48,WNW,284,10.0,15.0,41,0.00,,,0.00,meteohub,2013-04-03 16:52:00,
2013-04-03 12:57:00,36.7,15.3,30.48,NW,307,7.0,18.0,41,0.00,,,0.00,meteohub,2013-04-03 16:57:00,
2013-04-03 13:02:00,36.5,14.5,30.48,NW,319,6.0,18.0,40,0.00,,,0.00,meteohub,2013-04-03 17:02:00,
2013-04-03 13:07:00,37.0,15.4,30.48,North,356,6.0,18.0,41,0.00,,,0.00,meteohub,2013-04-03 17:07:00,
2013-04-03 13:12:00,37.6,15.4,30.48,NNW,340,4.0,12.0,40,0.00,,,0.00,meteohub,2013-04-03 17:12:00,
2013-04-03 13:17:00,37.8,16.2,30.47,NW,307,7.0,12.0,41,0.00,,,0.00,meteohub,2013-04-03 17:17:00,
2013-04-03 13:22:00,37.8,15.1,30.47,WNW,297,5.0,11.0,39,0.00,,,0.00,meteohub,2013-04-03 17:22:00,
2013-04-03 13:27:00,37.9,15.3,30.46,WNW,293,10.0,12.0,39,0.00,,,0.00,meteohub,2013-04-03 17:27:00,
2013-04-03 13:32:00,38.5,15.1,30.46,NW,307,6.0,12.0,38,0.00,,,0.00,meteohub,2013-04-03 17:32:00,
2013-04-03 13:38:00,38.1,14.7,30.46,NNW,344,4.0,15.0,38,0.00,,,0.00,meteohub,2013-04-03 17:38:00,
2013-04-03 13:43:00,38.1,16.0,30.46,NNE,23,7.0,15.0,40,0.00,,,0.00,meteohub,2013-04-03 17:43:00,
2013-04-03 13:48:00,38.7,14.5,30.45,NNW,348,10.0,15.0,37,0.00,,,0.00,meteohub,2013-04-03 17:48:00,
2013-04-03 13:53:00,39.0,16.2,30.45,NNE,13,8.0,15.0,39,0.00,,,0.00,meteohub,2013-04-03 17:53:00,
2013-04-03 13:58:00,39.0,13.6,30.45,NNE,13,5.0,15.0,35,0.00,,,0.00,meteohub,2013-04-03 17:58:00,
2013-04-03 14:03:00,39.4,15.3,30.45,NW,315,13.0,15.0,37,0.00,,,0.00,meteohub,2013-04-03 18:03:00,
2013-04-03 14:08:00,39.0,14.9,30.45,NNW,334,5.0,16.0,37,0.00,,,0.00,meteohub,2013-04-03 18:08:00,
2013-04-03 14:13:00,39.0,14.9,30.44,NNW,329,3.0,16.0,37,0.00,,,0.00,meteohub,2013-04-03 18:13:00,
2013-04-03 14:18:00,39.4,14.7,30.44,WNW,298,6.0,16.0,36,0.00,,,0.00,meteohub,2013-04-03 18:18:00,
2013-04-03 14:23:00,39.2,14.5,30.44,NNW,327,5.0,15.0,36,0.00,,,0.00,meteohub,2013-04-03 18:23:00,
2013-04-03 14:28:00,39.7,15.6,30.44,NE,50,8.0,11.0,37,0.00,,,0.00,meteohub,2013-04-03 18:28:00,
2013-04-03 14:34:00,39.7,14.9,30.44,NE,47,10.0,11.0,36,0.00,,,0.00,meteohub,2013-04-03 18:34:00,
2013-04-03 14:39:00,39.9,14.5,30.44,WNW,298,3.0,12.0,35,0.00,,,0.00,meteohub,2013-04-03 18:39:00,
2013-04-03 14:44:00,40.6,16.3,30.43,NNE,32,11.0,12.0,37,0.00,,,0.00,meteohub,2013-04-03 18:44:00,
2013-04-03 14:49:00,40.3,15.4,30.44,ENE,71,6.0,11.0,36,0.00,,,0.00,meteohub,2013-04-03 18:49:00,
2013-04-03 14:55:00,40.3,14.7,30.44,ENE,65,0.0,14.0,35,0.00,,,0.00,meteohub,2013-04-03 18:55:00,
2013-04-03 15:01:00,40.6,15.8,30.44,NNE,29,4.0,14.0,36,0.00,,,0.00,meteohub,2013-04-03 19:01:00,
2013-04-03 15:07:00,40.6,15.1,30.43,NW,318,3.0,11.0,35,0.00,,,0.00,meteohub,2013-04-03 19:07:00,
2013-04-03 15:14:00,40.6,15.1,30.43,ENE,71,2.0,11.0,35,0.00,,,0.00,meteohub,2013-04-03 19:14:00,
2013-04-03 15:21:00,41.4,15.1,30.43,NW,318,3.0,10.0,34,0.00,,,0.00,meteohub,2013-04-03 19:21:00,
2013-04-03 15:27:00,41.2,14.2,30.43,NNE,15,7.0,9.0,33,0.00,,,0.00,meteohub,2013-04-03 19:27:00,
2013-04-03 15:32:00,41.2,13.5,30.42,NW,318,2.0,12.0,32,0.00,,,0.00,meteohub,2013-04-03 19:32:00,
2013-04-03 15:38:00,41.2,13.5,30.43,ESE,110,2.0,12.0,32,0.00,,,0.00,meteohub,2013-04-03 19:38:00,
2013-04-03 15:43:00,41.4,14.4,30.43,NNE,26,1.0,12.0,33,0.00,,,0.00,meteohub,2013-04-03 19:43:00,
2013-04-03 15:48:00,41.0,14.0,30.43,South,175,2.0,10.0,33,0.00,,,0.00,meteohub,2013-04-03 19:48:00,
2013-04-03 15:53:00,41.4,14.4,30.43,North,355,1.0,10.0,33,0.00,,,0.00,meteohub,2013-04-03 19:53:00,
2013-04-03 15:58:00,41.5,14.5,30.43,West,280,5.0,10.0,33,0.00,,,0.00,meteohub,2013-04-03 19:58:00,
2013-04-03 16:03:00,41.9,14.9,30.43,SW,233,4.0,7.0,33,0.00,,,0.00,meteohub,2013-04-03 20:03:00,
2013-04-03 16:08:00,42.3,14.5,30.43,WSW,258,6.0,7.0,32,0.00,,,0.00,meteohub,2013-04-03 20:08:00,
2013-04-03 16:13:00,42.3,15.3,30.42,NNW,327,1.0,7.0,33,0.00,,,0.00,meteohub,2013-04-03 20:13:00,
2013-04-03 16:18:00,42.6,15.4,30.42,NW,325,5.0,7.0,33,0.00,,,0.00,meteohub,2013-04-03 20:18:00,
2013-04-03 16:23:00,43.2,14.5,30.42,WNW,297,2.0,7.0,31,0.00,,,0.00,meteohub,2013-04-03 20:23:00,
2013-04-03 16:28:00,43.0,13.6,30.41,NNE,12,4.0,7.0,30,0.00,,,0.00,meteohub,2013-04-03 20:28:00,
2013-04-03 16:33:00,42.6,14.0,30.41,NNW,331,2.0,8.0,31,0.00,,,0.00,meteohub,2013-04-03 20:33:00,
2013-04-03 16:38:00,42.6,13.3,30.41,NE,46,4.0,8.0,30,0.00,,,0.00,meteohub,2013-04-03 20:38:00,
2013-04-03 16:43:00,42.6,14.0,30.41,ESE,116,1.0,8.0,31,0.00,,,0.00,meteohub,2013-04-03 20:43:00,
2013-04-03 16:48:00,42.6,14.0,30.41,NW,311,6.0,8.0,31,0.00,,,0.00,meteohub,2013-04-03 20:48:00,
2013-04-03 16:53:00,42.4,13.1,30.40,WNW,290,3.0,7.0,30,0.00,,,0.00,meteohub,2013-04-03 20:53:00,
2013-04-03 16:58:00,42.8,13.5,30.41,NNW,332,2.0,7.0,30,0.00,,,0.00,meteohub,2013-04-03 20:58:00,
2013-04-03 17:04:00,43.2,13.8,30.40,West,263,4.0,7.0,30,0.00,,,0.00,meteohub,2013-04-03 21:04:00,
2013-04-03 17:09:00,43.3,14.0,30.40,West,271,2.0,6.0,30,0.00,,,0.00,meteohub,2013-04-03 21:09:00,
2013-04-03 17:14:00,44.1,14.5,30.40,South,191,2.0,6.0,30,0.00,,,0.00,meteohub,2013-04-03 21:14:00,
2013-04-03 17:19:00,44.8,15.3,30.41,SE,145,6.0,6.0,30,0.00,,,0.00,meteohub,2013-04-03 21:19:00,
2013-04-03 17:24:00,44.6,15.8,30.41,WSW,258,6.0,8.0,31,0.00,,,0.00,meteohub,2013-04-03 21:24:00,
2013-04-03 17:29:00,43.9,14.4,30.41,WNW,295,5.0,8.0,30,0.00,,,0.00,meteohub,2013-04-03 21:29:00,
2013-04-03 17:34:00,43.5,14.2,30.41,WSW,250,0.0,10.0,30,0.00,,,0.00,meteohub,2013-04-03 21:34:00,
2013-04-03 17:39:00,44.1,14.5,30.41,East,92,1.0,10.0,30,0.00,,,0.00,meteohub,2013-04-03 21:39:00,
2013-04-03 17:44:00,44.2,14.7,30.41,NW,307,0.0,9.0,30,0.00,,,0.00,meteohub,2013-04-03 21:44:00,
2013-04-03 17:49:00,44.8,16.0,30.40,WNW,287,0.0,5.0,31,0.00,,,0.00,meteohub,2013-04-03 21:49:00,
2013-04-03 17:54:00,45.1,14.7,30.41,East,98,3.0,4.0,29,0.00,,,0.00,meteohub,2013-04-03 21:54:00,
2013-04-03 17:59:00,44.2,15.4,30.40,SE,131,3.0,3.0,31,0.00,,,0.00,meteohub,2013-04-03 21:59:00,
2013-04-03 18:04:00,43.9,15.3,30.40,SE,146,3.0,4.0,31,0.00,,,0.00,meteohub,2013-04-03 22:04:00,
2013-04-03 18:09:00,43.7,15.8,30.40,East,95,5.0,7.0,32,0.00,,,0.00,meteohub,2013-04-03 22:09:00,
2013-04-03 18:15:00,43.3,15.4,30.40,SE,143,3.0,7.0,32,0.00,,,0.00,meteohub,2013-04-03 22:15:00,
2013-04-03 18:20:00,43.3,20.7,30.40,WNW,293,9.0,9.0,40,0.00,,,0.00,meteohub,2013-04-03 22:20:00,
2013-04-03 18:25:00,41.9,21.0,30.40,WNW,298,9.0,16.0,43,0.00,,,0.00,meteohub,2013-04-03 22:25:00,
2013-04-03 18:30:00,40.8,21.2,30.40,NW,305,9.0,16.0,45,0.00,,,0.00,meteohub,2013-04-03 22:30:00,
2013-04-03 18:35:00,40.5,21.7,30.40,WNW,297,5.0,16.0,47,0.00,,,0.00,meteohub,2013-04-03 22:35:00,
2013-04-03 18:40:00,40.5,21.7,30.40,WNW,282,8.0,12.0,47,0.00,,,0.00,meteohub,2013-04-03 22:40:00,
2013-04-03 18:45:00,40.3,22.1,30.40,WNW,284,6.0,12.0,48,0.00,,,0.00,meteohub,2013-04-03 22:45:00,
2013-04-03 18:50:00,39.9,21.4,30.39,NW,307,8.0,11.0,47,0.00,,,0.00,meteohub,2013-04-03 22:50:00,
2013-04-03 18:55:00,39.6,21.6,30.39,West,280,6.0,11.0,48,0.00,,,0.00,meteohub,2013-04-03 22:55:00,
2013-04-03 19:00:00,39.6,21.6,30.39,West,280,8.0,11.0,48,0.00,,,0.00,meteohub,2013-04-03 23:00:00,
2013-04-03 19:05:00,39.6,21.9,30.39,WNW,287,5.0,11.0,49,0.00,,,0.00,meteohub,2013-04-03 23:05:00,
2013-04-03 19:10:00,39.4,21.7,30.39,WNW,289,8.0,9.0,49,0.00,,,0.00,meteohub,2013-04-03 23:10:00,
2013-04-03 19:15:00,39.0,21.9,30.38,WNW,290,3.0,9.0,50,0.00,,,0.00,meteohub,2013-04-03 23:15:00,
2013-04-03 19:20:00,39.0,21.9,30.39,WNW,295,8.0,9.0,50,0.00,,,0.00,meteohub,2013-04-03 23:20:00,
2013-04-03 19:25:00,38.7,21.6,30.39,NW,320,6.0,9.0,50,0.00,,,0.00,meteohub,2013-04-03 23:25:00,
2013-04-03 19:30:00,38.5,21.9,30.39,WNW,293,5.0,9.0,51,0.00,,,0.00,meteohub,2013-04-03 23:30:00,
2013-04-03 19:35:00,38.1,21.6,30.39,NW,319,6.0,9.0,51,0.00,,,0.00,meteohub,2013-04-03 23:35:00,
2013-04-03 19:41:00,37.9,21.9,30.39,NW,304,5.0,9.0,52,0.00,,,0.00,meteohub,2013-04-03 23:41:00,
2013-04-03 19:46:00,37.2,21.2,30.39,NW,309,6.0,8.0,52,0.00,,,0.00,meteohub,2013-04-03 23:46:00,
2013-04-03 19:52:00,36.9,21.4,30.39,NW,326,6.0,8.0,53,0.00,,,0.00,meteohub,2013-04-03 23:52:00,
2013-04-03 19:57:00,36.7,21.2,30.39,NW,304,7.0,8.0,53,0.00,,,0.00,meteohub,2013-04-03 23:57:00,
2013-04-03 20:02:00,36.3,21.7,30.39,WNW,287,5.0,8.0,55,0.00,,,0.00,meteohub,2013-04-04 00:02:00,
2013-04-03 20:07:00,36.0,21.7,30.39,WNW,289,5.0,8.0,56,0.00,,,0.00,meteohub,2013-04-04 00:07:00,
2013-04-03 20:12:00,35.8,21.6,30.38,WNW,293,3.0,8.0,56,0.00,,,0.00,meteohub,2013-04-04 00:12:00,
2013-04-03 20:17:00,35.4,22.1,30.39,West,279,5.0,5.0,58,0.00,,,0.00,meteohub,2013-04-04 00:17:00,
2013-04-03 20:22:00,35.2,21.9,30.39,WNW,283,3.0,6.0,58,0.00,,,0.00,meteohub,2013-04-04 00:22:00,
2013-04-03 20:27:00,34.9,21.6,30.38,West,281,3.0,6.0,58,0.00,,,0.00,meteohub,2013-04-04 00:27:00,
2013-04-03 20:32:00,34.7,21.9,30.38,West,276,3.0,6.0,59,0.00,,,0.00,meteohub,2013-04-04 00:32:00,
2013-04-03 20:37:00,34.5,21.7,30.38,WNW,290,3.0,6.0,59,0.00,,,0.00,meteohub,2013-04-04 00:37:00,
2013-04-03 20:42:00,34.2,21.4,30.37,WNW,290,1.0,4.0,59,0.00,,,0.00,meteohub,2013-04-04 00:42:00,
2013-04-03 20:47:00,34.0,21.9,30.38,West,276,3.0,4.0,61,0.00,,,0.00,meteohub,2013-04-04 00:47:00,
2013-04-03 20:52:00,33.8,21.4,30.38,West,278,4.0,4.0,60,0.00,,,0.00,meteohub,2013-04-04 00:52:00,
2013-04-03 20:57:00,33.6,21.2,30.38,WNW,284,4.0,5.0,60,0.00,,,0.00,meteohub,2013-04-04 00:57:00,
2013-04-03 21:02:00,33.4,21.4,30.38,West,281,4.0,5.0,61,0.00,,,0.00,meteohub,2013-04-04 01:02:00,
2013-04-03 21:08:00,33.3,21.7,30.38,West,273,4.0,6.0,62,0.00,,,0.00,meteohub,2013-04-04 01:08:00,
2013-04-03 21:13:00,33.1,21.6,30.38,West,270,5.0,6.0,62,0.00,,,0.00,meteohub,2013-04-04 01:13:00,
2013-04-03 21:18:00,32.7,21.2,30.38,West,269,2.0,6.0,62,0.00,,,0.00,meteohub,2013-04-04 01:18:00,
2013-04-03 21:23:00,32.5,21.4,30.38,WSW,256,3.0,6.0,63,0.00,,,0.00,meteohub,2013-04-04 01:23:00,
2013-04-03 21:28:00,32.4,21.2,30.38,West,274,4.0,6.0,63,0.00,,,0.00,meteohub,2013-04-04 01:28:00,
2013-04-03 21:33:00,32.4,21.6,30.38,WNW,285,4.0,5.0,64,0.00,,,0.00,meteohub,2013-04-04 01:33:00,
2013-04-03 21:38:00,32.0,21.2,30.39,West,269,3.0,5.0,64,0.00,,,0.00,meteohub,2013-04-04 01:38:00,
2013-04-03 21:43:00,31.8,21.0,30.38,West,262,4.0,5.0,64,0.00,,,0.00,meteohub,2013-04-04 01:43:00,
2013-04-03 21:48:00,31.8,21.0,30.39,WNW,295,3.0,5.0,64,0.00,,,0.00,meteohub,2013-04-04 01:48:00,
2013-04-03 21:53:00,31.6,21.2,30.39,West,264,4.0,5.0,65,0.00,,,0.00,meteohub,2013-04-04 01:53:00,
2013-04-03 21:58:00,31.5,21.0,30.39,WSW,250,4.0,5.0,65,0.00,,,0.00,meteohub,2013-04-04 01:58:00,
2013-04-03 22:03:00,31.5,21.4,30.39,West,266,1.0,4.0,66,0.00,,,0.00,meteohub,2013-04-04 02:03:00,
2013-04-03 22:08:00,31.3,21.2,30.39,West,262,1.0,4.0,66,0.00,,,0.00,meteohub,2013-04-04 02:08:00,
2013-04-03 22:13:00,30.9,21.2,30.40,West,264,2.0,4.0,67,0.00,,,0.00,meteohub,2013-04-04 02:13:00,
2013-04-03 22:19:00,30.7,21.0,30.40,WSW,253,2.0,3.0,67,0.00,,,0.00,meteohub,2013-04-04 02:19:00,
2013-04-03 22:25:00,30.6,21.2,30.40,WNW,283,1.0,3.0,68,0.00,,,0.00,meteohub,2013-04-04 02:25:00,
2013-04-03 22:31:00,30.6,20.8,30.40,West,277,2.0,4.0,67,0.00,,,0.00,meteohub,2013-04-04 02:31:00,
2013-04-03 22:36:00,30.6,20.8,30.39,West,277,1.0,4.0,67,0.00,,,0.00,meteohub,2013-04-04 02:36:00,
2013-04-03 22:41:00,30.4,21.0,30.39,West,281,0.0,3.0,68,0.00,,,0.00,meteohub,2013-04-04 02:41:00,
2013-04-03 22:46:00,29.8,20.7,30.39,West,281,0.0,3.0,68,0.00,,,0.00,meteohub,2013-04-04 02:46:00,
2013-04-03 22:51:00,29.7,20.7,30.39,West,281,1.0,2.0,69,0.00,,,0.00,meteohub,2013-04-04 02:51:00,
2013-04-03 22:56:00,29.7,20.7,30.39,West,278,2.0,2.0,69,0.00,,,0.00,meteohub,2013-04-04 02:56:00,
2013-04-03 23:01:00,29.8,20.8,30.39,West,263,1.0,3.0,69,0.00,,,0.00,meteohub,2013-04-04 03:01:00,
2013-04-03 23:06:00,29.8,20.8,30.39,WSW,256,1.0,3.0,69,0.00,,,0.00,meteohub,2013-04-04 03:06:00,
2013-04-03 23:11:00,29.7,21.0,30.39,WSW,256,0.0,3.0,70,0.00,,,0.00,meteohub,2013-04-04 03:11:00,
2013-04-03 23:16:00,29.7,21.4,30.39,WSW,256,0.0,2.0,71,0.00,,,0.00,meteohub,2013-04-04 03:16:00,
2013-04-03 23:21:00,29.7,21.4,30.39,West,264,1.0,1.0,71,0.00,,,0.00,meteohub,2013-04-04 03:21:00,
2013-04-03 23:26:00,29.5,21.2,30.39,West,263,0.0,1.0,71,0.00,,,0.00,meteohub,2013-04-04 03:26:00,
2013-04-03 23:31:00,28.9,20.7,30.38,West,263,0.0,1.0,71,0.00,,,0.00,meteohub,2013-04-04 03:31:00,
2013-04-03 23:37:00,28.4,20.5,30.38,West,262,0.0,1.0,72,0.00,,,0.00,meteohub,2013-04-04 03:37:00,
2013-04-03 23:42:00,28.0,20.1,30.38,West,263,0.0,1.0,72,0.00,,,0.00,meteohub,2013-04-04 03:42:00,
2013-04-03 23:47:00,27.5,20.3,30.38,West,263,0.0,0.0,74,0.00,,,0.00,meteohub,2013-04-04 03:47:00,
2013-04-03 23:52:00,27.5,20.3,30.38,West,263,0.0,0.0,74,0.00,,,0.00,meteohub,2013-04-04 03:52:00,
2013-04-03 23:57:00,27.5,20.3,30.38,West,263,0.0,0.0,74,0.00,,,0.00,meteohub,2013-04-04 03:57:00,